sensor_id;sensor_type;location;lat;lon;timestamp;pressure;altitude;pressure_sealevel;temperature;humidity
74230;BME280;62589;12.568;99.958;2022-09-09T00:01:33;100831.44;;;31.97;57.83
74230;BME280;62589;12.568;99.958;2022-09-09T00:04:25;100836.97;;;31.97;58.11
74230;BME280;62589;12.568;99.958;2022-09-09T00:07:07;100838.16;;;31.96;58.50
74230;BME280;62589;12.568;99.958;2022-09-09T00:09:48;100845.31;;;31.97;58.26
74230;BME280;62589;12.568;99.958;2022-09-09T00:15:05;100857.22;;;31.97;58.46
74230;BME280;62589;12.568;99.958;2022-09-09T00:17:47;100871.91;;;31.98;58.73
74230;BME280;62589;12.568;99.958;2022-09-09T00:26:16;100882.66;;;32.03;59.69
74230;BME280;62589;12.568;99.958;2022-09-09T00:28:55;100881.06;;;32.02;59.21
74230;BME280;62589;12.568;99.958;2022-09-09T00:31:28;100892.59;;;32.04;58.85
74230;BME280;62589;12.568;99.958;2022-09-09T00:33:59;100889.44;;;32.05;58.63
74230;BME280;62589;12.568;99.958;2022-09-09T00:36:31;100890.66;;;32.08;58.74
74230;BME280;62589;12.568;99.958;2022-09-09T00:39:02;100894.66;;;32.10;58.12
74230;BME280;62589;12.568;99.958;2022-09-09T00:44:36;100903.84;;;32.15;58.03
74230;BME280;62589;12.568;99.958;2022-09-09T00:47:32;100903.50;;;32.20;58.94
74230;BME280;62589;12.568;99.958;2022-09-09T00:56:13;100905.22;;;32.31;59.99
74230;BME280;62589;12.568;99.958;2022-09-09T00:58:46;100917.09;;;32.28;59.38
74230;BME280;62589;12.568;99.958;2022-09-09T01:01:18;100925.91;;;32.34;59.08
74230;BME280;62589;12.568;99.958;2022-09-09T01:03:55;100925.50;;;32.35;58.65
74230;BME280;62589;12.568;99.958;2022-09-09T01:06:41;100922.78;;;32.42;58.62
74230;BME280;62589;12.568;99.958;2022-09-09T01:14:56;100943.47;;;32.45;58.92
74230;BME280;62589;12.568;99.958;2022-09-09T01:17:51;100940.72;;;32.49;59.03
74230;BME280;62589;12.568;99.958;2022-09-09T01:20:26;100947.63;;;32.62;58.26
74230;BME280;62589;12.568;99.958;2022-09-09T01:28:46;100949.88;;;32.49;57.57
74230;BME280;62589;12.568;99.958;2022-09-09T01:31:18;100960.19;;;32.49;58.35
74230;BME280;62589;12.568;99.958;2022-09-09T01:33:46;100965.78;;;32.52;58.35
74230;BME280;62589;12.568;99.958;2022-09-09T01:36:25;100961.78;;;32.50;58.56
74230;BME280;62589;12.568;99.958;2022-09-09T01:38:54;100963.81;;;32.53;58.76
74230;BME280;62589;12.568;99.958;2022-09-09T01:41:21;100968.97;;;32.54;59.01
74230;BME280;62589;12.568;99.958;2022-09-09T01:43:48;100973.75;;;32.54;58.79
74230;BME280;62589;12.568;99.958;2022-09-09T01:46:16;100982.09;;;32.54;58.70
74230;BME280;62589;12.568;99.958;2022-09-09T01:48:44;100983.31;;;32.56;58.02
74230;BME280;62589;12.568;99.958;2022-09-09T01:51:11;100990.47;;;32.57;58.54
74230;BME280;62589;12.568;99.958;2022-09-09T01:53:40;100990.03;;;32.55;58.49
74230;BME280;62589;12.568;99.958;2022-09-09T02:04:53;101026.28;;;32.62;59.69
74230;BME280;62589;12.568;99.958;2022-09-09T02:07:38;101025.47;;;32.62;59.11
74230;BME280;62589;12.568;99.958;2022-09-09T02:10:33;101026.66;;;32.64;59.02
74230;BME280;62589;12.568;99.958;2022-09-09T02:13:16;101028.63;;;32.64;59.48
74230;BME280;62589;12.568;99.958;2022-09-09T02:15:53;101031.41;;;32.64;60.16
74230;BME280;62589;12.568;99.958;2022-09-09T02:18:27;101027.47;;;32.65;60.17
74230;BME280;62589;12.568;99.958;2022-09-09T02:20:58;101031.84;;;32.66;59.98
74230;BME280;62589;12.568;99.958;2022-09-09T02:23:25;101038.25;;;32.70;60.09
74230;BME280;62589;12.568;99.958;2022-09-09T02:25:54;101035.84;;;32.68;60.67
74230;BME280;62589;12.568;99.958;2022-09-09T02:28:23;101039.03;;;32.70;61.05
74230;BME280;62589;12.568;99.958;2022-09-09T02:30:51;101043.44;;;32.71;61.09
74230;BME280;62589;12.568;99.958;2022-09-09T02:33:28;101040.28;;;32.73;60.08
74230;BME280;62589;12.568;99.958;2022-09-09T02:35:57;101039.53;;;32.76;59.84
74230;BME280;62589;12.568;99.958;2022-09-09T02:38:32;101045.94;;;32.80;59.89
74230;BME280;62589;12.568;99.958;2022-09-09T02:41:01;101041.19;;;32.84;59.81
74230;BME280;62589;12.568;99.958;2022-09-09T02:43:35;101039.25;;;32.88;59.72
74230;BME280;62589;12.568;99.958;2022-09-09T02:46:29;101037.75;;;32.94;59.49
74230;BME280;62589;12.568;99.958;2022-09-09T02:52:02;101029.09;;;33.06;59.06
74230;BME280;62589;12.568;99.958;2022-09-09T02:54:33;101022.34;;;33.07;58.58
74230;BME280;62589;12.568;99.958;2022-09-09T02:57:25;101022.88;;;33.20;58.87
74230;BME280;62589;12.568;99.958;2022-09-09T02:59:53;101024.94;;;33.27;59.00
74230;BME280;62589;12.568;99.958;2022-09-09T03:02:22;101027.81;;;33.37;59.97
74230;BME280;62589;12.568;99.958;2022-09-09T03:04:50;101023.50;;;33.43;59.40
74230;BME280;62589;12.568;99.958;2022-09-09T03:07:18;101023.50;;;33.47;57.56
74230;BME280;62589;12.568;99.958;2022-09-09T03:09:45;101021.97;;;33.53;57.35
74230;BME280;62589;12.568;99.958;2022-09-09T03:12:12;101021.22;;;33.60;56.50
74230;BME280;62589;12.568;99.958;2022-09-09T03:14:39;101027.63;;;33.64;56.40
74230;BME280;62589;12.568;99.958;2022-09-09T03:17:05;101017.31;;;33.71;56.68
74230;BME280;62589;12.568;99.958;2022-09-09T03:19:32;101013.03;;;33.81;56.96
74230;BME280;62589;12.568;99.958;2022-09-09T03:22:01;101025.81;;;33.93;56.92
74230;BME280;62589;12.568;99.958;2022-09-09T03:24:27;101021.47;;;33.99;56.82
74230;BME280;62589;12.568;99.958;2022-09-09T03:26:53;101017.94;;;34.09;56.60
74230;BME280;62589;12.568;99.958;2022-09-09T03:29:21;101017.59;;;34.21;56.24
74230;BME280;62589;12.568;99.958;2022-09-09T03:31:47;101016.47;;;34.29;55.71
74230;BME280;62589;12.568;99.958;2022-09-09T03:34:14;101008.91;;;34.37;55.42
74230;BME280;62589;12.568;99.958;2022-09-09T03:36:40;101000.19;;;34.45;55.37
74230;BME280;62589;12.568;99.958;2022-09-09T03:39:07;101004.16;;;34.52;54.62
74230;BME280;62589;12.568;99.958;2022-09-09T03:41:33;100994.25;;;34.61;54.53
74230;BME280;62589;12.568;99.958;2022-09-09T03:44:00;100992.69;;;34.67;53.02
74230;BME280;62589;12.568;99.958;2022-09-09T03:46:26;100993.50;;;34.78;52.73
74230;BME280;62589;12.568;99.958;2022-09-09T03:48:53;100985.94;;;34.86;52.43
74230;BME280;62589;12.568;99.958;2022-09-09T03:51:19;100979.56;;;34.96;51.22
74230;BME280;62589;12.568;99.958;2022-09-09T03:53:47;100988.34;;;35.02;50.45
74230;BME280;62589;12.568;99.958;2022-09-09T03:56:13;100974.41;;;35.09;49.55
74230;BME280;62589;12.568;99.958;2022-09-09T03:58:40;100977.97;;;35.17;49.41
74230;BME280;62589;12.568;99.958;2022-09-09T04:01:10;100973.59;;;35.23;49.28
74230;BME280;62589;12.568;99.958;2022-09-09T04:03:39;100967.25;;;35.29;49.40
74230;BME280;62589;12.568;99.958;2022-09-09T04:06:07;100959.66;;;35.33;49.80
74230;BME280;62589;12.568;99.958;2022-09-09T04:08:35;100959.22;;;35.42;49.40
74230;BME280;62589;12.568;99.958;2022-09-09T04:11:02;100957.22;;;35.46;49.75
74230;BME280;62589;12.568;99.958;2022-09-09T04:13:36;100964.81;;;35.49;50.07
74230;BME280;62589;12.568;99.958;2022-09-09T04:16:06;100960.81;;;35.54;49.45
74230;BME280;62589;12.568;99.958;2022-09-09T04:18:34;100961.63;;;35.54;49.91
74230;BME280;62589;12.568;99.958;2022-09-09T04:21:01;100962.00;;;35.53;49.27
74230;BME280;62589;12.568;99.958;2022-09-09T04:23:29;100955.63;;;35.52;48.69
74230;BME280;62589;12.568;99.958;2022-09-09T04:25:57;100963.22;;;35.52;49.66
74230;BME280;62589;12.568;99.958;2022-09-09T04:28:26;100959.22;;;35.53;49.87
74230;BME280;62589;12.568;99.958;2022-09-09T04:30:53;100952.84;;;35.52;50.69
74230;BME280;62589;12.568;99.958;2022-09-09T04:33:20;100946.06;;;35.50;50.55
74230;BME280;62589;12.568;99.958;2022-09-09T04:35:48;100940.88;;;35.48;51.05
74230;BME280;62589;12.568;99.958;2022-09-09T04:38:16;100934.09;;;35.49;50.44
74230;BME280;62589;12.568;99.958;2022-09-09T04:40:46;100941.66;;;35.52;51.00
74230;BME280;62589;12.568;99.958;2022-09-09T04:43:14;100925.69;;;35.56;50.83
74230;BME280;62589;12.568;99.958;2022-09-09T04:45:41;100928.06;;;35.61;50.91
74230;BME280;62589;12.568;99.958;2022-09-09T04:48:08;100915.28;;;35.64;51.02
74230;BME280;62589;12.568;99.958;2022-09-09T04:50:38;100914.47;;;35.70;50.23
74230;BME280;62589;12.568;99.958;2022-09-09T04:53:06;100922.03;;;35.77;50.61
74230;BME280;62589;12.568;99.958;2022-09-09T04:55:34;100919.25;;;35.73;50.27
74230;BME280;62589;12.568;99.958;2022-09-09T04:58:08;100912.44;;;35.81;48.95
74230;BME280;62589;12.568;99.958;2022-09-09T05:00:35;100906.06;;;35.85;48.30
74230;BME280;62589;12.568;99.958;2022-09-09T05:03:05;100904.88;;;35.82;46.89
74230;BME280;62589;12.568;99.958;2022-09-09T05:05:33;100894.47;;;35.90;46.69
74230;BME280;62589;12.568;99.958;2022-09-09T05:08:07;100886.41;;;35.99;47.69
74230;BME280;62589;12.568;99.958;2022-09-09T05:10:38;100885.19;;;36.07;48.55
74230;BME280;62589;12.568;99.958;2022-09-09T05:13:05;100877.16;;;36.16;49.08
74230;BME280;62589;12.568;99.958;2022-09-09T05:15:32;100875.50;;;36.22;48.07
74230;BME280;62589;12.568;99.958;2022-09-09T05:18:00;100863.13;;;36.23;46.13
74230;BME280;62589;12.568;99.958;2022-09-09T05:20:28;100852.72;;;36.24;44.97
74230;BME280;62589;12.568;99.958;2022-09-09T05:22:56;100856.31;;;36.31;45.29
74230;BME280;62589;12.568;99.958;2022-09-09T05:25:24;100844.72;;;36.33;44.72
74230;BME280;62589;12.568;99.958;2022-09-09T05:27:52;100835.09;;;36.37;44.49
74230;BME280;62589;12.568;99.958;2022-09-09T05:30:20;100833.88;;;36.38;44.90
74230;BME280;62589;12.568;99.958;2022-09-09T05:32:50;100828.28;;;36.38;43.61
74230;BME280;62589;12.568;99.958;2022-09-09T05:35:17;100820.69;;;36.39;44.83
74230;BME280;62589;12.568;99.958;2022-09-09T05:37:45;100813.47;;;36.41;45.01
74230;BME280;62589;12.568;99.958;2022-09-09T05:40:12;100803.88;;;36.42;44.37
74230;BME280;62589;12.568;99.958;2022-09-09T05:42:39;100793.06;;;36.44;45.07
74230;BME280;62589;12.568;99.958;2022-09-09T05:45:08;100785.47;;;36.48;45.69
74230;BME280;62589;12.568;99.958;2022-09-09T05:47:35;100781.00;;;36.55;45.94
74230;BME280;62589;12.568;99.958;2022-09-09T05:50:03;100778.59;;;36.57;46.22
74230;BME280;62589;12.568;99.958;2022-09-09T05:52:30;100776.53;;;36.61;45.76
74230;BME280;62589;12.568;99.958;2022-09-09T05:54:58;100774.91;;;36.63;45.70
74230;BME280;62589;12.568;99.958;2022-09-09T05:57:25;100757.69;;;36.68;45.39
74230;BME280;62589;12.568;99.958;2022-09-09T05:59:52;100759.28;;;36.73;45.32
74230;BME280;62589;12.568;99.958;2022-09-09T06:02:19;100743.66;;;36.75;44.88
74230;BME280;62589;12.568;99.958;2022-09-09T06:04:46;100735.19;;;36.82;45.60
74230;BME280;62589;12.568;99.958;2022-09-09T06:07:13;100733.13;;;36.87;45.80
74230;BME280;62589;12.568;99.958;2022-09-09T06:09:40;100721.91;;;36.90;44.89
74230;BME280;62589;12.568;99.958;2022-09-09T06:12:07;100705.13;;;36.90;44.53
74230;BME280;62589;12.568;99.958;2022-09-09T06:14:35;100695.88;;;36.93;43.94
74230;BME280;62589;12.568;99.958;2022-09-09T06:17:03;100697.47;;;36.94;44.87
74230;BME280;62589;12.568;99.958;2022-09-09T06:19:29;100688.72;;;36.92;43.73
74230;BME280;62589;12.568;99.958;2022-09-09T06:21:56;100686.31;;;36.91;43.20
74230;BME280;62589;12.568;99.958;2022-09-09T06:24:24;100684.31;;;36.91;43.15
74230;BME280;62589;12.568;99.958;2022-09-09T06:26:51;100679.16;;;36.90;43.93
74230;BME280;62589;12.568;99.958;2022-09-09T06:29:18;100677.97;;;36.87;45.53
74230;BME280;62589;12.568;99.958;2022-09-09T06:31:45;100663.97;;;36.87;45.34
74230;BME280;62589;12.568;99.958;2022-09-09T06:34:13;100667.16;;;36.89;45.69
74230;BME280;62589;12.568;99.958;2022-09-09T06:36:40;100655.59;;;36.87;46.40
74230;BME280;62589;12.568;99.958;2022-09-09T06:39:09;100655.22;;;36.85;46.96
74230;BME280;62589;12.568;99.958;2022-09-09T06:41:37;100653.22;;;36.86;47.38
74230;BME280;62589;12.568;99.958;2022-09-09T06:44:05;100661.56;;;36.89;48.70
74230;BME280;62589;12.568;99.958;2022-09-09T06:46:32;100639.97;;;36.90;48.49
74230;BME280;62589;12.568;99.958;2022-09-09T06:48:59;100637.59;;;36.88;48.17
74230;BME280;62589;12.568;99.958;2022-09-09T06:51:31;100636.47;;;36.82;47.67
74230;BME280;62589;12.568;99.958;2022-09-09T06:54:00;100633.72;;;36.78;47.64
74230;BME280;62589;12.568;99.958;2022-09-09T06:56:30;100629.38;;;36.74;47.76
74230;BME280;62589;12.568;99.958;2022-09-09T06:58:59;100626.19;;;36.75;47.89
74230;BME280;62589;12.568;99.958;2022-09-09T07:01:30;100623.44;;;36.68;47.71
74230;BME280;62589;12.568;99.958;2022-09-09T07:03:58;100613.41;;;36.71;47.69
74230;BME280;62589;12.568;99.958;2022-09-09T07:06:34;100611.44;;;36.68;48.15
74230;BME280;62589;12.568;99.958;2022-09-09T07:09:03;100601.84;;;36.69;48.25
74230;BME280;62589;12.568;99.958;2022-09-09T07:11:34;100603.06;;;36.68;47.44
74230;BME280;62589;12.568;99.958;2022-09-09T07:14:03;100609.84;;;36.67;47.87
74230;BME280;62589;12.568;99.958;2022-09-09T07:16:30;100596.69;;;36.64;47.82
74230;BME280;62589;12.568;99.958;2022-09-09T07:18:59;100591.09;;;36.64;47.27
74230;BME280;62589;12.568;99.958;2022-09-09T07:21:28;100588.34;;;36.60;47.17
74230;BME280;62589;12.568;99.958;2022-09-09T07:23:55;100595.91;;;36.63;47.99
74230;BME280;62589;12.568;99.958;2022-09-09T07:26:24;100587.94;;;36.62;47.88
74230;BME280;62589;12.568;99.958;2022-09-09T07:28:51;100595.53;;;36.61;47.98
74230;BME280;62589;12.568;99.958;2022-09-09T07:31:24;100594.00;;;36.57;47.46
74230;BME280;62589;12.568;99.958;2022-09-09T07:33:52;100592.81;;;36.58;47.62
74230;BME280;62589;12.568;99.958;2022-09-09T07:38:30;100597.91;;;36.32;48.23
74230;BME280;62589;12.568;99.958;2022-09-09T07:41:07;100587.09;;;36.34;47.84
74230;BME280;62589;12.568;99.958;2022-09-09T07:43:45;100585.41;;;36.40;47.44
74230;BME280;62589;12.568;99.958;2022-09-09T07:46:15;100578.16;;;36.46;47.48
74230;BME280;62589;12.568;99.958;2022-09-09T07:48:47;100586.09;;;36.52;47.21
74230;BME280;62589;12.568;99.958;2022-09-09T07:51:20;100583.66;;;36.54;47.06
74230;BME280;62589;12.568;99.958;2022-09-09T07:53:54;100584.03;;;36.56;46.99
74230;BME280;62589;12.568;99.958;2022-09-09T07:56:21;100580.88;;;36.54;46.99
74230;BME280;62589;12.568;99.958;2022-09-09T07:58:50;100579.25;;;36.56;46.68
74230;BME280;62589;12.568;99.958;2022-09-09T08:01:21;100580.44;;;36.55;46.57
74230;BME280;62589;12.568;99.958;2022-09-09T08:03:55;100577.22;;;36.57;46.35
74230;BME280;62589;12.568;99.958;2022-09-09T08:06:26;100576.78;;;36.58;46.35
74230;BME280;62589;12.568;99.958;2022-09-09T08:08:55;100575.94;;;36.61;46.29
74230;BME280;62589;12.568;99.958;2022-09-09T08:11:24;100565.16;;;36.63;45.80
74230;BME280;62589;12.568;99.958;2022-09-09T08:13:52;100563.88;;;36.68;45.42
74230;BME280;62589;12.568;99.958;2022-09-09T08:16:24;100560.69;;;36.69;45.62
74230;BME280;62589;12.568;99.958;2022-09-09T08:18:52;100546.69;;;36.73;45.37
74230;BME280;62589;12.568;99.958;2022-09-09T08:21:24;100534.28;;;36.74;45.56
74230;BME280;62589;12.568;99.958;2022-09-09T08:23:54;100526.63;;;36.78;45.10
74230;BME280;62589;12.568;99.958;2022-09-09T08:26:26;100529.06;;;36.76;44.89
74230;BME280;62589;12.568;99.958;2022-09-09T08:28:56;100519.06;;;36.75;44.99
74230;BME280;62589;12.568;99.958;2022-09-09T08:34:11;100516.66;;;36.77;45.42
74230;BME280;62589;12.568;99.958;2022-09-09T08:36:41;100507.53;;;36.69;45.19
74230;BME280;62589;12.568;99.958;2022-09-09T08:39:10;100500.34;;;36.68;45.30
74230;BME280;62589;12.568;99.958;2022-09-09T08:52:22;100481.22;;;36.36;46.48
74230;BME280;62589;12.568;99.958;2022-09-09T08:54:49;100485.78;;;36.54;46.11
74230;BME280;62589;12.568;99.958;2022-09-09T08:57:25;100485.13;;;36.42;46.41
74230;BME280;62589;12.568;99.958;2022-09-09T08:59:55;100473.94;;;36.42;46.26
74230;BME280;62589;12.568;99.958;2022-09-09T09:05:41;100484.69;;;36.44;46.88
74230;BME280;62589;12.568;99.958;2022-09-09T09:08:30;100479.53;;;36.42;47.22
74230;BME280;62589;12.568;99.958;2022-09-09T09:11:04;100475.63;;;36.36;46.81
74230;BME280;62589;12.568;99.958;2022-09-09T09:13:55;100478.78;;;36.38;46.92
74230;BME280;62589;12.568;99.958;2022-09-09T09:16:46;100477.28;;;36.34;46.92
74230;BME280;62589;12.568;99.958;2022-09-09T09:19:16;100475.34;;;36.27;47.19
74230;BME280;62589;12.568;99.958;2022-09-09T09:27:40;100466.19;;;36.23;46.91
74230;BME280;62589;12.568;99.958;2022-09-09T09:30:20;100464.63;;;36.19;47.10
74230;BME280;62589;12.568;99.958;2022-09-09T09:32:56;100467.84;;;36.17;47.55
74230;BME280;62589;12.568;99.958;2022-09-09T09:35:25;100470.63;;;36.17;47.05
74230;BME280;62589;12.568;99.958;2022-09-09T09:37:53;100467.53;;;36.11;47.34
74230;BME280;62589;12.568;99.958;2022-09-09T09:40:21;100475.97;;;36.08;47.42
74230;BME280;62589;12.568;99.958;2022-09-09T09:42:59;100466.41;;;36.05;47.56
74230;BME280;62589;12.568;99.958;2022-09-09T09:45:35;100463.69;;;35.98;47.16
74230;BME280;62589;12.568;99.958;2022-09-09T09:48:12;100468.13;;;35.96;47.80
74230;BME280;62589;12.568;99.958;2022-09-09T09:51:05;100473.66;;;35.99;47.93
74230;BME280;62589;12.568;99.958;2022-09-09T09:53:37;100480.16;;;35.93;48.05
74230;BME280;62589;12.568;99.958;2022-09-09T09:56:09;100478.19;;;35.90;47.90
74230;BME280;62589;12.568;99.958;2022-09-09T09:58:51;100480.22;;;35.86;48.16
74230;BME280;62589;12.568;99.958;2022-09-09T10:01:31;100485.03;;;35.81;47.48
74230;BME280;62589;12.568;99.958;2022-09-09T10:04:20;100486.66;;;35.79;47.68
74230;BME280;62589;12.568;99.958;2022-09-09T10:06:52;100479.88;;;35.80;47.60
74230;BME280;62589;12.568;99.958;2022-09-09T10:09:29;100474.72;;;35.75;47.90
74230;BME280;62589;12.568;99.958;2022-09-09T10:15:02;100470.75;;;35.72;47.05
74230;BME280;62589;12.568;99.958;2022-09-09T10:20:52;100474.00;;;35.67;47.52
74230;BME280;62589;12.568;99.958;2022-09-09T10:29:40;100468.06;;;35.62;48.12
74230;BME280;62589;12.568;99.958;2022-09-09T10:35:35;100482.97;;;35.48;48.41
74230;BME280;62589;12.568;99.958;2022-09-09T10:38:18;100495.38;;;35.43;48.18
74230;BME280;62589;12.568;99.958;2022-09-09T10:44:12;100507.78;;;35.39;48.59
74230;BME280;62589;12.568;99.958;2022-09-09T10:55:28;100532.59;;;35.30;48.90
74230;BME280;62589;12.568;99.958;2022-09-09T10:58:00;100532.19;;;35.24;49.29
74230;BME280;62589;12.568;99.958;2022-09-09T11:00:49;100538.97;;;35.27;49.71
74230;BME280;62589;12.568;99.958;2022-09-09T11:03:26;100537.38;;;35.22;49.50
74230;BME280;62589;12.568;99.958;2022-09-09T11:06:04;100551.75;;;35.21;49.75
74230;BME280;62589;12.568;99.958;2022-09-09T11:08:34;100556.16;;;35.18;49.84
74230;BME280;62589;12.568;99.958;2022-09-09T11:11:13;100557.34;;;35.17;49.89
74230;BME280;62589;12.568;99.958;2022-09-09T11:14:05;100575.66;;;35.22;49.69
74230;BME280;62589;12.568;99.958;2022-09-09T11:16:58;100570.50;;;35.17;49.98
74230;BME280;62589;12.568;99.958;2022-09-09T11:19:45;100577.28;;;35.15;50.47
74230;BME280;62589;12.568;99.958;2022-09-09T11:25:23;100585.72;;;35.12;49.96
74230;BME280;62589;12.568;99.958;2022-09-09T11:34:17;100591.34;;;35.05;50.17
74230;BME280;62589;12.568;99.958;2022-09-09T11:37:17;100596.91;;;35.05;50.43
74230;BME280;62589;12.568;99.958;2022-09-09T11:40:22;100598.09;;;35.04;50.43
74230;BME280;62589;12.568;99.958;2022-09-09T11:45:53;100617.25;;;34.98;50.12
74230;BME280;62589;12.568;99.958;2022-09-09T11:51:26;100626.03;;;34.97;50.32
74230;BME280;62589;12.568;99.958;2022-09-09T11:53:58;100627.25;;;34.92;50.29
74230;BME280;62589;12.568;99.958;2022-09-09T11:56:41;100633.63;;;34.93;50.48
74230;BME280;62589;12.568;99.958;2022-09-09T11:59:28;100641.97;;;34.96;50.10
74230;BME280;62589;12.568;99.958;2022-09-09T12:02:01;100646.78;;;34.92;50.21
74230;BME280;62589;12.568;99.958;2022-09-09T12:04:42;100655.16;;;34.92;49.96
74230;BME280;62589;12.568;99.958;2022-09-09T12:10:34;100664.31;;;34.93;49.88
74230;BME280;62589;12.568;99.958;2022-09-09T12:13:20;100668.28;;;34.95;49.54
74230;BME280;62589;12.568;99.958;2022-09-09T12:15:56;100674.69;;;34.92;49.62
74230;BME280;62589;12.568;99.958;2022-09-09T12:18:42;100685.81;;;34.96;49.71
74230;BME280;62589;12.568;99.958;2022-09-09T12:24:27;100694.19;;;34.96;49.73
74230;BME280;62589;12.568;99.958;2022-09-09T12:27:24;100706.53;;;34.98;49.91
74230;BME280;62589;12.568;99.958;2022-09-09T12:30:03;100710.53;;;34.94;49.98
74230;BME280;62589;12.568;99.958;2022-09-09T12:32:31;100721.28;;;34.95;49.89
74230;BME280;62589;12.568;99.958;2022-09-09T12:37:48;100725.69;;;34.96;50.07
74230;BME280;62589;12.568;99.958;2022-09-09T12:40:30;100741.22;;;34.97;50.03
74230;BME280;62589;12.568;99.958;2022-09-09T12:45:46;100749.59;;;34.97;50.27
74230;BME280;62589;12.568;99.958;2022-09-09T12:48:18;100755.16;;;34.97;50.46
74230;BME280;62589;12.568;99.958;2022-09-09T12:50:50;100755.56;;;34.96;50.30
74230;BME280;62589;12.568;99.958;2022-09-09T12:53:36;100765.53;;;35.00;50.60
74230;BME280;62589;12.568;99.958;2022-09-09T12:56:07;100772.31;;;34.96;50.09
74230;BME280;62589;12.568;99.958;2022-09-09T12:58:37;100781.47;;;34.96;50.35
74230;BME280;62589;12.568;99.958;2022-09-09T13:01:17;100787.06;;;34.96;50.41
74230;BME280;62589;12.568;99.958;2022-09-09T13:03:47;100797.81;;;34.98;50.29
74230;BME280;62589;12.568;99.958;2022-09-09T13:06:24;100800.22;;;34.96;50.42
74230;BME280;62589;12.568;99.958;2022-09-09T13:08:52;100805.00;;;34.95;50.15
74230;BME280;62589;12.568;99.958;2022-09-09T13:14:01;100810.97;;;34.97;50.36
74230;BME280;62589;12.568;99.958;2022-09-09T13:16:30;100817.34;;;34.94;50.01
74230;BME280;62589;12.568;99.958;2022-09-09T13:19:17;100826.91;;;35.00;50.04
74230;BME280;62589;12.568;99.958;2022-09-09T13:21:44;100824.53;;;34.95;50.13
74230;BME280;62589;12.568;99.958;2022-09-09T13:24:32;100827.72;;;34.97;50.07
74230;BME280;62589;12.568;99.958;2022-09-09T13:27:04;100830.09;;;34.95;50.32
74230;BME280;62589;12.568;99.958;2022-09-09T13:29:33;100841.25;;;34.95;50.04
74230;BME280;62589;12.568;99.958;2022-09-09T13:32:16;100840.88;;;34.97;50.54
74230;BME280;62589;12.568;99.958;2022-09-09T13:35:00;100852.41;;;34.95;50.42
74230;BME280;62589;12.568;99.958;2022-09-09T13:37:36;100849.22;;;34.97;50.67
74230;BME280;62589;12.568;99.958;2022-09-09T13:40:06;100852.41;;;34.95;50.59
74230;BME280;62589;12.568;99.958;2022-09-09T13:42:44;100852.41;;;34.95;51.02
74230;BME280;62589;12.568;99.958;2022-09-09T13:45:20;100856.41;;;34.94;50.85
74230;BME280;62589;12.568;99.958;2022-09-09T13:47:49;100863.97;;;34.94;51.01
74230;BME280;62589;12.568;99.958;2022-09-09T13:50:27;100861.59;;;35.06;50.97
74230;BME280;62589;12.568;99.958;2022-09-09T13:52:58;100873.94;;;34.95;51.57
74230;BME280;62589;12.568;99.958;2022-09-09T13:55:27;100885.94;;;34.92;51.62
74230;BME280;62589;12.568;99.958;2022-09-09T13:58:02;100881.91;;;34.93;51.62
74230;BME280;62589;12.568;99.958;2022-09-09T14:00:33;100889.13;;;34.90;51.33
74230;BME280;62589;12.568;99.958;2022-09-09T14:03:01;100889.91;;;34.91;51.46
74230;BME280;62589;12.568;99.958;2022-09-09T14:05:29;100889.50;;;34.89;51.69
74230;BME280;62589;12.568;99.958;2022-09-09T14:07:58;100887.91;;;34.88;51.58
74230;BME280;62589;12.568;99.958;2022-09-09T14:10:26;100899.47;;;34.86;51.48
74230;BME280;62589;12.568;99.958;2022-09-09T14:12:53;100905.44;;;34.85;51.70
74230;BME280;62589;12.568;99.958;2022-09-09T14:15:20;100905.06;;;34.83;51.48
74230;BME280;62589;12.568;99.958;2022-09-09T14:17:48;100921.78;;;34.83;51.61
74230;BME280;62589;12.568;99.958;2022-09-09T14:20:15;100919.00;;;34.83;51.73
74230;BME280;62589;12.568;99.958;2022-09-09T14:22:43;100919.41;;;34.81;51.81
74230;BME280;62589;12.568;99.958;2022-09-09T14:25:10;100923.38;;;34.80;52.00
74230;BME280;62589;12.568;99.958;2022-09-09T14:27:39;100930.94;;;34.79;51.67
74230;BME280;62589;12.568;99.958;2022-09-09T14:30:07;100939.72;;;34.78;51.91
74230;BME280;62589;12.568;99.958;2022-09-09T14:32:34;100947.25;;;34.77;51.94
74230;BME280;62589;12.568;99.958;2022-09-09T14:35:01;100952.81;;;34.77;51.93
74230;BME280;62589;12.568;99.958;2022-09-09T14:37:30;100956.00;;;34.76;51.61
74230;BME280;62589;12.568;99.958;2022-09-09T14:39:57;100960.38;;;34.73;52.19
74230;BME280;62589;12.568;99.958;2022-09-09T14:42:24;100960.38;;;34.73;51.63
74230;BME280;62589;12.568;99.958;2022-09-09T14:44:52;100965.97;;;34.73;51.74
74230;BME280;62589;12.568;99.958;2022-09-09T14:47:20;100959.22;;;34.71;52.10
74230;BME280;62589;12.568;99.958;2022-09-09T14:49:48;100956.03;;;34.69;52.27
74230;BME280;62589;12.568;99.958;2022-09-09T14:52:15;100969.97;;;34.69;52.57
74230;BME280;62589;12.568;99.958;2022-09-09T14:54:42;100967.97;;;34.69;52.73
74230;BME280;62589;12.568;99.958;2022-09-09T14:57:09;100967.56;;;34.67;52.73
74230;BME280;62589;12.568;99.958;2022-09-09T14:59:36;100960.00;;;34.64;53.18
74230;BME280;62589;12.568;99.958;2022-09-09T15:02:03;100962.78;;;34.61;53.51
74230;BME280;62589;12.568;99.958;2022-09-09T15:04:30;100962.38;;;34.59;53.47
74230;BME280;62589;12.568;99.958;2022-09-09T15:06:57;100959.19;;;34.57;53.75
74230;BME280;62589;12.568;99.958;2022-09-09T15:09:24;100955.19;;;34.54;54.04